createdAt,value
2022-08-19T00:01:28.788Z,7.90
2022-08-19T00:03:56.935Z,8.35
2022-08-19T00:06:26.133Z,7.63
2022-08-19T00:08:53.727Z,7.57
2022-08-19T00:11:25.486Z,8.25
2022-08-19T00:13:54.209Z,8.18
2022-08-19T00:16:26.877Z,7.40
2022-08-19T00:18:56.052Z,8.02
2022-08-19T00:21:24.188Z,7.60
2022-08-19T00:23:54.073Z,8.07
2022-08-19T00:26:22.092Z,8.70
2022-08-19T00:28:49.798Z,8.55
2022-08-19T00:31:17.474Z,8.00
2022-08-19T00:33:45.282Z,7.95
2022-08-19T00:36:13.321Z,7.65
2022-08-19T00:38:44.169Z,8.45
2022-08-19T00:41:15.434Z,8.45
2022-08-19T00:43:43.066Z,8.07
2022-08-19T00:46:11.024Z,8.48
2022-08-19T00:48:38.746Z,9.32
2022-08-19T00:51:07.548Z,9.07
2022-08-19T00:53:35.952Z,9.02
2022-08-19T00:56:07.059Z,9.07
2022-08-19T00:58:37.187Z,10.18
2022-08-19T01:01:08.511Z,9.27
2022-08-19T01:03:57.158Z,9.27
2022-08-19T01:06:23.905Z,10.18
2022-08-19T01:08:51.604Z,10.02
2022-08-19T01:11:19.377Z,10.98
2022-08-19T01:13:49.815Z,11.18
2022-08-19T01:16:20.352Z,10.50
2022-08-19T01:18:48.357Z,10.32
2022-08-19T01:21:23.885Z,10.35
2022-08-19T01:23:53.142Z,10.73
2022-08-19T01:26:25.058Z,10.02
2022-08-19T01:28:59.617Z,10.73
2022-08-19T01:31:32.726Z,10.50
2022-08-19T01:34:02.258Z,11.60
2022-08-19T01:36:32.835Z,10.43
2022-08-19T01:39:02.796Z,10.88
2022-08-19T01:41:30.504Z,10.18
2022-08-19T01:44:16.920Z,11.07
2022-08-19T01:46:47.998Z,10.00
2022-08-19T01:49:15.839Z,12.00
2022-08-19T01:51:43.472Z,11.80
2022-08-19T01:54:23.160Z,12.52
2022-08-19T01:57:00.237Z,12.85
2022-08-19T01:59:28.167Z,12.45
2022-08-19T02:01:55.997Z,12.55
2022-08-19T02:04:24.259Z,11.32
2022-08-19T02:06:51.878Z,10.52
2022-08-19T02:09:20.840Z,11.00
2022-08-19T02:11:48.385Z,11.43
2022-08-19T02:14:16.116Z,10.82
2022-08-19T02:16:43.736Z,11.27
2022-08-19T02:19:11.285Z,10.73
2022-08-19T02:21:39.233Z,11.07
2022-08-19T02:24:06.908Z,12.82
2022-08-19T02:26:35.889Z,13.52
2022-08-19T02:29:03.517Z,11.32
2022-08-19T02:31:31.152Z,12.27
2022-08-19T02:33:59.133Z,11.73
2022-08-19T02:36:27.383Z,11.07
2022-08-19T02:38:55.547Z,12.02
2022-08-19T02:41:27.894Z,12.35
2022-08-19T02:44:29.421Z,12.57
2022-08-19T02:46:47.992Z,12.65
2022-08-19T02:49:17.078Z,13.48
2022-08-19T02:51:47.280Z,11.43
2022-08-19T02:54:16.308Z,12.60
2022-08-19T02:56:45.358Z,12.18
2022-08-19T02:59:14.261Z,11.80
2022-08-19T03:01:43.450Z,12.40
2022-08-19T03:04:14.198Z,12.93
2022-08-19T03:06:44.926Z,12.57
2022-08-19T03:09:13.250Z,12.63
2022-08-19T03:11:41.407Z,13.00
2022-08-19T03:14:10.590Z,13.52
2022-08-19T03:16:43.930Z,14.07
2022-08-19T03:19:11.478Z,12.95
2022-08-19T03:21:39.050Z,13.45
2022-08-19T03:24:09.629Z,13.52
2022-08-19T03:26:40.985Z,13.43
2022-08-19T03:29:11.574Z,13.18
2022-08-19T03:31:52.027Z,13.70
2022-08-19T03:34:23.266Z,12.95
2022-08-19T03:36:50.851Z,12.95
2022-08-19T03:39:18.958Z,12.98
2022-08-19T03:41:49.869Z,13.13
2022-08-19T03:44:38.438Z,13.05
2022-08-19T03:47:08.868Z,12.30
2022-08-19T03:49:37.462Z,13.02
2022-08-19T03:52:08.276Z,12.80
2022-08-19T03:54:36.813Z,13.77
2022-08-19T03:57:05.024Z,13.90
2022-08-19T03:59:36.193Z,14.20
2022-08-19T04:02:09.802Z,14.18
2022-08-19T04:04:39.652Z,12.98
2022-08-19T04:07:07.373Z,13.68
2022-08-19T04:09:37.479Z,13.32
2022-08-19T04:12:07.583Z,13.48
2022-08-19T04:14:35.914Z,13.50
2022-08-19T04:17:05.562Z,13.32
2022-08-19T04:19:33.984Z,13.77
2022-08-19T04:22:02.960Z,13.75
2022-08-19T04:24:30.499Z,13.77
2022-08-19T04:26:58.107Z,12.15
2022-08-19T04:29:27.879Z,13.80
2022-08-19T04:31:56.874Z,13.45
2022-08-19T04:34:27.361Z,13.05
2022-08-19T04:36:56.922Z,12.95
2022-08-19T04:39:49.102Z,13.23
2022-08-19T04:42:36.027Z,12.73
2022-08-19T04:45:05.364Z,12.50
2022-08-19T04:47:47.552Z,13.10
2022-08-19T04:50:24.817Z,12.98
2022-08-19T04:52:53.443Z,13.10
2022-08-19T04:55:22.483Z,12.70
2022-08-19T04:57:51.580Z,12.50
2022-08-19T05:00:19.390Z,12.52
2022-08-19T05:02:46.943Z,12.50
2022-08-19T05:05:15.047Z,12.27
2022-08-19T05:07:42.986Z,12.70
2022-08-19T05:10:11.403Z,12.57
2022-08-19T05:12:40.406Z,12.35
2022-08-19T05:15:09.864Z,11.95
2022-08-19T05:17:38.954Z,11.90
2022-08-19T05:20:26.047Z,12.07
2022-08-19T05:22:53.861Z,11.65
2022-08-19T05:25:23.152Z,11.93
2022-08-19T05:27:52.069Z,11.52
2022-08-19T05:30:33.632Z,12.00
2022-08-19T05:33:10.274Z,12.27
2022-08-19T05:35:38.899Z,10.60
2022-08-19T05:38:08.114Z,11.30
2022-08-19T05:40:36.941Z,11.57
2022-08-19T05:43:07.373Z,10.82
2022-08-19T05:45:39.674Z,10.25
2022-08-19T05:48:07.680Z,10.88
2022-08-19T05:50:35.198Z,10.95
2022-08-19T05:53:02.716Z,10.80
2022-08-19T05:55:30.299Z,11.77
2022-08-19T05:57:57.885Z,12.23
2022-08-19T06:00:26.899Z,10.30
2022-08-19T06:02:55.557Z,11.38
2022-08-19T06:05:23.388Z,10.73
2022-08-19T06:07:50.952Z,11.10
2022-08-19T06:10:18.575Z,10.75
2022-08-19T06:12:46.129Z,10.43
2022-08-19T06:15:15.318Z,10.55
2022-08-19T06:17:46.076Z,9.55
2022-08-19T06:20:15.937Z,10.60
2022-08-19T06:22:45.731Z,10.32
2022-08-19T06:25:14.688Z,10.15
2022-08-19T06:30:30.783Z,11.02
2022-08-19T06:32:59.697Z,11.13
2022-08-19T06:35:27.906Z,11.32
2022-08-19T06:37:55.590Z,12.10
2022-08-19T06:40:23.447Z,11.75
2022-08-19T06:42:54.887Z,12.68
2022-08-19T06:45:24.715Z,12.32
2022-08-19T06:47:56.745Z,12.32
2022-08-19T06:50:26.194Z,12.82
2022-08-19T06:52:55.249Z,12.68
2022-08-19T06:55:23.081Z,13.18
2022-08-19T06:57:54.244Z,13.38
2022-08-19T07:00:22.317Z,12.50
2022-08-19T07:02:54.325Z,12.90
2022-08-19T07:05:24.758Z,13.95
2022-08-19T07:07:52.314Z,13.90
2022-08-19T07:10:20.336Z,15.02
2022-08-19T07:12:48.531Z,14.25
2022-08-19T07:15:16.784Z,15.82
2022-08-19T07:17:48.006Z,15.32
2022-08-19T07:20:20.847Z,15.77
2022-08-19T07:22:50.189Z,14.15
2022-08-19T07:25:18.780Z,14.23
2022-08-19T07:27:46.571Z,15.00
2022-08-19T07:30:23.252Z,14.95
2022-08-19T07:32:53.924Z,15.27
2022-08-19T07:35:21.520Z,14.55
2022-08-19T07:37:50.399Z,15.02
2022-08-19T07:40:18.034Z,14.25
2022-08-19T07:42:45.594Z,14.50
2022-08-19T07:45:14.010Z,14.52
2022-08-19T07:47:47.533Z,13.35
2022-08-19T07:50:20.261Z,13.32
2022-08-19T07:52:48.842Z,12.98
2022-08-19T07:55:41.526Z,12.55
2022-08-19T07:58:08.563Z,13.20
2022-08-19T08:00:37.241Z,12.10
2022-08-19T08:03:05.213Z,12.02
2022-08-19T08:05:50.635Z,13.07
2022-08-19T08:08:44.116Z,12.43
2022-08-19T08:11:20.698Z,13.98
2022-08-19T08:14:00.383Z,12.73
2022-08-19T08:16:30.851Z,12.68
2022-08-19T08:18:58.878Z,12.50
2022-08-19T08:21:26.465Z,13.20
2022-08-19T08:23:56.047Z,13.10
2022-08-19T08:26:25.921Z,15.13
2022-08-19T08:28:53.646Z,13.70
2022-08-19T08:31:21.488Z,13.20
2022-08-19T08:33:49.327Z,12.93
2022-08-19T08:36:17.157Z,13.55
2022-08-19T08:38:46.324Z,13.85
2022-08-19T08:41:22.811Z,13.65
2022-08-19T08:43:54.184Z,14.23
2022-08-19T08:46:31.014Z,14.02
2022-08-19T08:49:05.218Z,16.58
2022-08-19T08:51:36.871Z,17.65
2022-08-19T08:54:09.885Z,17.17
2022-08-19T08:56:40.065Z,16.10
2022-08-19T08:59:14.648Z,16.95
2022-08-19T09:04:09.794Z,17.25
2022-08-19T09:06:46.130Z,19.30
2022-08-19T09:09:18.614Z,18.77
2022-08-19T09:11:57.495Z,19.42
2022-08-19T09:14:50.256Z,18.85
2022-08-19T09:17:19.553Z,18.98
2022-08-19T09:19:53.905Z,17.85
2022-08-19T09:22:25.814Z,19.27
2022-08-19T09:24:56.059Z,16.75
2022-08-19T09:27:42.185Z,17.33
2022-08-19T09:30:16.157Z,17.17
2022-08-19T09:32:44.318Z,18.50
2022-08-19T09:35:13.402Z,19.40
2022-08-19T09:37:41.486Z,18.98
2022-08-19T09:40:12.281Z,17.77
2022-08-19T09:42:50.412Z,18.95
2022-08-19T09:45:23.900Z,19.27
2022-08-19T09:47:54.336Z,22.30
2022-08-19T09:50:23.974Z,22.75
2022-08-19T09:52:54.171Z,21.30
2022-08-19T09:55:31.089Z,21.77
2022-08-19T09:58:00.461Z,20.00
2022-08-19T10:00:29.810Z,19.23
2022-08-19T10:02:57.337Z,19.15
2022-08-19T10:05:42.684Z,18.67
2022-08-19T10:08:13.628Z,16.85
2022-08-19T10:10:46.510Z,16.60
2022-08-19T10:13:16.113Z,17.92
2022-08-19T10:15:48.193Z,17.25
2022-08-19T10:18:18.657Z,16.08
2022-08-19T10:20:51.776Z,16.20
2022-08-19T10:23:19.992Z,14.52
2022-08-19T10:25:48.299Z,15.52
2022-08-19T10:28:16.129Z,14.52
2022-08-19T10:30:48.783Z,12.20
2022-08-19T10:33:39.279Z,13.02
2022-08-19T10:36:06.873Z,14.93
2022-08-19T10:38:34.750Z,14.35
2022-08-19T10:41:09.078Z,14.75
2022-08-19T10:43:39.060Z,13.63
2022-08-19T10:46:14.252Z,10.95
2022-08-19T10:48:45.839Z,10.52
2022-08-19T10:51:31.676Z,10.90
2022-08-19T10:54:00.645Z,10.75
2022-08-19T10:56:46.920Z,10.60
2022-08-19T10:59:15.474Z,12.65
2022-08-19T11:01:46.238Z,11.95
2022-08-19T11:04:18.189Z,11.93
2022-08-19T11:06:48.331Z,11.55
2022-08-19T11:09:16.546Z,10.00
2022-08-19T11:11:44.611Z,10.07
2022-08-19T11:14:16.198Z,10.73
2022-08-19T11:16:45.072Z,10.95
2022-08-19T11:19:15.169Z,11.50
2022-08-19T11:21:45.810Z,10.57
2022-08-19T11:24:19.225Z,9.93
2022-08-19T11:26:46.863Z,9.75
2022-08-19T11:29:15.261Z,9.52
2022-08-19T11:31:46.923Z,10.57
2022-08-19T11:34:18.035Z,10.05
2022-08-19T11:36:48.358Z,9.05
2022-08-19T11:39:18.726Z,11.23
2022-08-19T11:41:46.896Z,11.60
2022-08-19T11:44:17.517Z,10.98
2022-08-19T11:46:47.604Z,10.35
2022-08-19T11:49:16.102Z,9.45
2022-08-19T11:51:44.819Z,10.60
2022-08-19T11:54:13.636Z,10.40
2022-08-19T11:56:42.294Z,9.82
2022-08-19T11:59:14.668Z,9.15
2022-08-19T12:01:43.470Z,8.68
2022-08-19T12:04:13.182Z,8.35
2022-08-19T12:06:42.529Z,8.38
2022-08-19T12:09:11.756Z,9.98
2022-08-19T12:11:40.304Z,11.32
2022-08-19T12:14:09.146Z,10.50
2022-08-19T12:16:46.589Z,10.52
2022-08-19T12:19:22.302Z,10.93
2022-08-19T12:21:50.976Z,10.57
2022-08-19T12:24:23.717Z,11.05
2022-08-19T12:26:52.482Z,10.70
2022-08-19T12:29:23.603Z,9.75
2022-08-19T12:31:52.140Z,9.07
2022-08-19T12:34:21.661Z,9.70
2022-08-19T12:36:50.311Z,9.82
2022-08-19T12:39:18.214Z,9.35
2022-08-19T12:41:51.517Z,8.70
2022-08-19T12:44:28.873Z,8.85
2022-08-19T12:46:57.372Z,9.05
2022-08-19T12:49:51.902Z,8.60
2022-08-19T12:52:16.637Z,10.40
2022-08-19T12:54:54.684Z,9.40
2022-08-19T12:57:23.156Z,8.35
2022-08-19T12:59:55.020Z,7.93
2022-08-19T13:02:23.310Z,6.80
2022-08-19T13:04:52.184Z,6.38
2022-08-19T13:07:19.739Z,7.20
2022-08-19T13:09:47.264Z,7.40
2022-08-19T13:12:14.803Z,7.18
2022-08-19T13:14:43.211Z,7.75
2022-08-19T13:17:12.538Z,7.78
2022-08-19T13:19:40.943Z,7.47
2022-08-19T13:22:13.243Z,7.78
2022-08-19T13:27:15.132Z,7.32
2022-08-19T13:30:00.434Z,8.45
2022-08-19T13:32:45.915Z,7.75
2022-08-19T13:35:16.857Z,7.07
2022-08-19T13:37:46.325Z,6.97
2022-08-19T13:40:19.057Z,7.22
2022-08-19T13:42:50.498Z,6.28
2022-08-19T13:45:20.467Z,6.72
2022-08-19T13:47:48.955Z,7.93
2022-08-19T13:50:19.174Z,6.28
2022-08-19T13:52:49.096Z,6.38
2022-08-19T13:55:24.787Z,6.57
2022-08-19T13:57:53.818Z,6.80
2022-08-19T14:00:25.559Z,6.68
2022-08-19T14:02:55.099Z,6.15
2022-08-19T14:05:23.053Z,5.88
2022-08-19T14:07:52.062Z,5.80
2022-08-19T14:10:20.166Z,5.50
2022-08-19T14:12:48.441Z,6.03
2022-08-19T14:15:17.284Z,6.03
2022-08-19T14:17:47.562Z,5.45
2022-08-19T14:20:18.337Z,6.70
2022-08-19T14:22:47.552Z,4.70
2022-08-19T14:25:21.677Z,7.13
2022-08-19T14:27:50.427Z,5.90
2022-08-19T14:30:21.912Z,5.70
2022-08-19T14:32:49.516Z,6.13
2022-08-19T14:35:18.947Z,4.90
2022-08-19T14:37:47.320Z,5.55
2022-08-19T14:40:18.591Z,5.20
2022-08-19T14:42:46.510Z,5.65
2022-08-19T14:45:14.387Z,4.90
2022-08-19T14:47:42.020Z,4.53
2022-08-19T14:50:18.259Z,6.10
2022-08-19T14:52:47.298Z,9.35
2022-08-19T14:55:17.037Z,5.65
2022-08-19T14:57:46.054Z,5.05
2022-08-19T15:00:15.451Z,6.05
2022-08-19T15:02:44.988Z,5.22
2022-08-19T15:05:13.126Z,6.47
2022-08-19T15:07:41.791Z,5.00
2022-08-19T15:10:11.589Z,5.13
2022-08-19T15:12:41.672Z,4.95
2022-08-19T15:15:13.566Z,4.55
2022-08-19T15:17:45.300Z,5.47
2022-08-19T15:20:23.653Z,5.00
2022-08-19T15:22:51.240Z,4.22
2022-08-19T15:25:21.182Z,5.00
2022-08-19T15:27:51.137Z,4.97
2022-08-19T15:30:22.990Z,4.95
2022-08-19T15:32:53.348Z,6.55
2022-08-19T15:35:21.537Z,5.05
2022-08-19T15:37:51.152Z,5.25
2022-08-19T15:40:19.747Z,5.25
2022-08-19T15:42:47.778Z,5.05
2022-08-19T15:45:18.536Z,4.80
2022-08-19T15:47:46.208Z,4.43
2022-08-19T15:50:16.322Z,5.00
2022-08-19T15:52:49.662Z,4.80
2022-08-19T15:55:21.329Z,4.90
2022-08-19T15:58:27.744Z,5.73
2022-08-19T16:01:15.576Z,5.97
2022-08-19T16:04:01.501Z,5.13
2022-08-19T16:06:29.356Z,5.57
2022-08-19T16:08:58.726Z,5.28
2022-08-19T16:11:30.301Z,6.40
2022-08-19T16:13:59.446Z,6.25
2022-08-19T16:16:33.657Z,5.60
2022-08-19T16:19:04.016Z,5.47
2022-08-19T16:21:33.138Z,5.53
2022-08-19T16:24:02.609Z,5.50
2022-08-19T16:26:31.070Z,5.90
2022-08-19T16:29:00.428Z,5.60
2022-08-19T16:31:29.977Z,6.35
2022-08-19T16:33:58.067Z,5.55
2022-08-19T16:36:25.698Z,5.88
2022-08-19T16:38:54.462Z,5.72
2022-08-19T16:41:23.259Z,5.20
2022-08-19T16:43:52.406Z,5.97
2022-08-19T16:46:21.400Z,5.60
2022-08-19T16:48:51.688Z,5.15
2022-08-19T16:51:19.363Z,5.60
2022-08-19T16:53:47.003Z,5.10
2022-08-19T16:56:15.267Z,5.13
2022-08-19T16:58:43.165Z,5.10
2022-08-19T17:01:11.737Z,4.68
2022-08-19T17:03:39.844Z,4.78
2022-08-19T17:06:20.324Z,4.45
2022-08-19T17:08:49.293Z,4.30
2022-08-19T17:11:19.161Z,4.47
2022-08-19T17:13:47.921Z,4.25
2022-08-19T17:16:16.347Z,4.55
2022-08-19T17:18:44.033Z,4.50
2022-08-19T17:21:13.403Z,4.22
2022-08-19T17:23:43.208Z,4.20
2022-08-19T17:26:14.119Z,4.25
2022-08-19T17:28:47.158Z,4.53
2022-08-19T17:31:15.135Z,4.60
2022-08-19T17:33:42.837Z,5.28
2022-08-19T17:36:17.424Z,4.82
2022-08-19T17:38:45.287Z,5.10
2022-08-19T17:41:13.147Z,5.63
2022-08-19T17:43:43.803Z,4.90
2022-08-19T17:46:18.123Z,5.53
2022-08-19T17:51:24.483Z,5.60
2022-08-19T17:53:53.644Z,5.50
2022-08-19T17:56:21.737Z,5.82
2022-08-19T17:58:57.645Z,6.53
2022-08-19T18:01:32.718Z,6.70
2022-08-19T18:04:17.070Z,6.50
2022-08-19T18:06:53.119Z,6.25
2022-08-19T18:09:23.878Z,6.10
2022-08-19T18:11:53.474Z,6.80
2022-08-19T18:14:30.498Z,6.20
2022-08-19T18:17:01.841Z,6.03
2022-08-19T18:19:29.509Z,6.90
2022-08-19T18:22:12.925Z,5.82
2022-08-19T18:24:41.438Z,6.50
2022-08-19T18:27:09.927Z,6.43
2022-08-19T18:29:38.360Z,7.70
2022-08-19T18:32:09.039Z,7.00
2022-08-19T18:34:37.281Z,7.95
2022-08-19T18:37:05.283Z,7.80
2022-08-19T18:39:57.291Z,7.75
2022-08-19T18:42:42.578Z,7.15
2022-08-19T18:45:29.026Z,7.88
2022-08-19T18:48:26.438Z,8.07
2022-08-19T18:50:55.980Z,7.93
2022-08-19T18:53:23.637Z,7.47
2022-08-19T18:55:54.993Z,8.32
2022-08-19T18:58:26.125Z,7.80
2022-08-19T19:00:56.599Z,7.70
2022-08-19T19:03:24.664Z,7.43
2022-08-19T19:05:52.647Z,7.75
2022-08-19T19:08:20.641Z,7.63
2022-08-19T19:10:56.817Z,7.85
2022-08-19T19:13:24.591Z,7.75
2022-08-19T19:15:52.180Z,8.52
2022-08-19T19:18:19.767Z,7.68
2022-08-19T19:20:47.335Z,7.63
2022-08-19T19:23:14.908Z,7.35
2022-08-19T19:25:50.025Z,7.90
2022-08-19T19:28:25.675Z,8.13
2022-08-19T19:30:54.082Z,8.40
2022-08-19T19:33:21.714Z,8.35
2022-08-19T19:35:49.464Z,7.88
2022-08-19T19:38:17.199Z,8.48
2022-08-19T19:40:45.424Z,9.07
2022-08-19T19:43:13.007Z,8.50
2022-08-19T19:45:41.917Z,9.02
2022-08-19T19:48:09.937Z,9.52
2022-08-19T19:50:37.465Z,8.45
2022-08-19T19:53:06.230Z,8.48
2022-08-19T19:55:33.815Z,8.45
2022-08-19T19:58:01.507Z,8.85
2022-08-19T20:00:29.865Z,8.73
2022-08-19T20:02:58.809Z,8.85
2022-08-19T20:05:27.213Z,8.30
2022-08-19T20:08:13.104Z,9.80
2022-08-19T20:10:43.179Z,8.43
2022-08-19T20:13:12.954Z,8.85
2022-08-19T20:15:43.351Z,8.45
2022-08-19T20:18:14.373Z,8.35
2022-08-19T20:20:42.477Z,9.02
2022-08-19T20:23:10.240Z,8.00
2022-08-19T20:25:38.943Z,8.68
2022-08-19T20:28:06.533Z,8.38
2022-08-19T20:30:34.469Z,9.38
2022-08-19T20:33:06.722Z,8.38
2022-08-19T20:35:40.270Z,8.50
2022-08-19T20:38:14.525Z,9.00
2022-08-19T20:40:42.236Z,8.52
2022-08-19T20:43:11.826Z,8.13
2022-08-19T20:45:42.498Z,7.95
2022-08-19T20:48:12.353Z,8.05
2022-08-19T20:50:44.699Z,8.27
2022-08-19T20:53:16.102Z,8.40
2022-08-19T20:55:45.196Z,7.88
2022-08-19T20:58:13.615Z,8.18
2022-08-19T21:00:41.590Z,7.63
2022-08-19T21:03:09.263Z,8.02
2022-08-19T21:05:36.870Z,8.77
2022-08-19T21:08:06.068Z,7.97
2022-08-19T21:10:33.730Z,8.30
2022-08-19T21:13:03.654Z,8.18
2022-08-19T21:15:31.538Z,7.97
2022-08-19T21:17:59.613Z,8.27
2022-08-19T21:20:27.175Z,8.98
2022-08-19T21:22:54.737Z,8.27
2022-08-19T21:25:23.637Z,8.82
2022-08-19T21:27:51.421Z,7.50
2022-08-19T21:30:18.981Z,7.60
2022-08-19T21:32:50.601Z,7.13
2022-08-19T21:35:20.384Z,7.32
2022-08-19T21:37:48.015Z,7.97
2022-08-19T21:40:16.513Z,8.13
2022-08-19T21:42:45.974Z,8.48
2022-08-19T21:45:15.114Z,7.38
2022-08-19T21:47:42.686Z,7.30
2022-08-19T21:50:11.868Z,7.35
2022-08-19T21:52:40.830Z,7.45
2022-08-19T21:55:10.376Z,7.82
2022-08-19T21:57:41.325Z,6.93
2022-08-19T22:00:16.570Z,7.22
2022-08-19T22:02:44.225Z,7.93
2022-08-19T22:05:12.803Z,7.78
2022-08-19T22:07:42.595Z,8.10
2022-08-19T22:10:11.532Z,7.63
2022-08-19T22:12:46.042Z,7.22
2022-08-19T22:15:22.021Z,7.55
2022-08-19T22:17:49.756Z,6.95
2022-08-19T22:20:19.612Z,7.05
2022-08-19T22:22:49.661Z,6.35
2022-08-19T22:25:31.194Z,6.60
2022-08-19T22:28:00.628Z,6.07
2022-08-19T22:30:33.785Z,6.53
2022-08-19T22:33:04.740Z,6.65
2022-08-19T22:35:34.371Z,6.10
2022-08-19T22:38:02.795Z,6.00
2022-08-19T22:40:32.056Z,6.35
2022-08-19T22:43:02.065Z,5.28
2022-08-19T22:45:32.301Z,5.85
2022-08-19T22:48:00.733Z,5.38
2022-08-19T22:50:28.387Z,5.28
2022-08-19T22:52:57.883Z,5.60
2022-08-19T22:55:25.827Z,5.80
2022-08-19T22:57:54.309Z,5.78
2022-08-19T23:00:22.387Z,6.22
2022-08-19T23:02:52.565Z,6.78
2022-08-19T23:05:22.469Z,6.57
2022-08-19T23:07:52.202Z,7.55
2022-08-19T23:10:27.351Z,8.05
2022-08-19T23:12:56.713Z,7.85
2022-08-19T23:15:27.501Z,10.95
2022-08-19T23:18:00.445Z,11.57
2022-08-19T23:20:31.367Z,10.55
2022-08-19T23:22:58.986Z,11.98
2022-08-19T23:25:30.254Z,12.30
2022-08-19T23:28:15.699Z,12.77
2022-08-19T23:30:45.266Z,11.85
2022-08-19T23:33:24.480Z,13.77
2022-08-19T23:35:54.339Z,12.00
2022-08-19T23:38:23.218Z,12.77
2022-08-19T23:40:52.715Z,12.93
2022-08-19T23:43:24.603Z,13.50
2022-08-19T23:45:53.689Z,13.30
2022-08-19T23:48:28.380Z,12.48
2022-08-19T23:50:57.066Z,13.85
2022-08-19T23:53:24.794Z,12.07
2022-08-19T23:55:52.622Z,10.98
2022-08-19T23:58:22.269Z,10.55
